CheckWX is a tool to help pilots better visualize weather data.  It is not intended as a substitute for an official pre-flight weather briefing.

20:36:59 UTC

KDUX METAR
Moore County Airport
Dumas, Texas, USA
Current

22 mins ago

KDUX 182015Z AUTO 06008KT 10SM SCT070 M04/M12 A3024 RMK AO2 T10431122
Observed
Feb-18 @ 20:15 UTC
Wind
  • 060° at 8 KTS
Visibility
10 SM
Flight Rules
VFR
Cloud Levels
  • Scattered at 7,000' AGL
Temperature
-4°C / 25°F
Dewpoint
-12°C / 10°F
Humidity
54%
Altimeter
30.24" Hg
Pressure
1024.02 hPa
Previous

42 mins ago

KDUX 181955Z AUTO 04007KT 10SM SCT070 M05/M12 A3025 RMK AO2 T10491124
Observed
Feb-18 @ 19:55 UTC
Wind
  • 040° at 7 KTS
Visibility
10 SM
Flight Rules
VFR
Cloud Levels
  • Scattered at 7,000' AGL
Temperature
-5°C / 23°F
Dewpoint
-12°C / 10°F
Humidity
58%
Altimeter
30.25" Hg
Pressure
1024.42 hPa
Previous

1 hour ago

KDUX 181935Z AUTO 04008KT 10SM SCT070 M04/M12 A3026 RMK AO2 T10411118
Observed
Feb-18 @ 19:35 UTC
Wind
  • 040° at 8 KTS
Visibility
10 SM
Flight Rules
VFR
Cloud Levels
  • Scattered at 7,000' AGL
Temperature
-4°C / 25°F
Dewpoint
-12°C / 10°F
Humidity
54%
Altimeter
30.26" Hg
Pressure
1024.72 hPa